createdAt,value
2023-10-13T00:00:27.101Z,4.30
2023-10-13T00:01:54.250Z,4.00
2023-10-13T00:03:01.423Z,4.00
2023-10-13T00:04:04.868Z,4.60
2023-10-13T00:05:10.518Z,4.70
2023-10-13T00:06:13.537Z,4.70
2023-10-13T00:07:16.401Z,6.20
2023-10-13T00:08:21.737Z,4.50
2023-10-13T00:09:34.751Z,4.30
2023-10-13T00:10:37.832Z,4.00
2023-10-13T00:11:45.719Z,4.00
2023-10-13T00:12:50.900Z,5.00
2023-10-13T00:13:55.255Z,4.30
2023-10-13T00:15:02.180Z,4.40
2023-10-13T00:16:10.663Z,4.50
2023-10-13T00:17:26.120Z,5.00
2023-10-13T00:18:34.828Z,4.60
2023-10-13T00:19:46.205Z,4.00
2023-10-13T00:20:51.998Z,3.80
2023-10-13T00:21:57.374Z,4.30
2023-10-13T00:23:00.813Z,4.20
2023-10-13T00:24:07.262Z,3.80
2023-10-13T00:25:20.552Z,5.50
2023-10-13T00:26:29.593Z,4.10
2023-10-13T00:27:37.316Z,3.50
2023-10-13T00:28:48.950Z,4.50
2023-10-13T00:30:05.281Z,4.60
2023-10-13T00:31:12.257Z,3.80
2023-10-13T00:32:17.506Z,4.20
2023-10-13T00:33:24.234Z,4.70
2023-10-13T00:34:29.895Z,3.70
2023-10-13T00:35:43.341Z,4.30
2023-10-13T00:36:50.612Z,4.50
2023-10-13T00:37:58.178Z,4.30
2023-10-13T00:39:05.109Z,3.60
2023-10-13T00:40:18.622Z,4.40
2023-10-13T00:41:40.758Z,3.80
2023-10-13T00:42:52.586Z,4.50
2023-10-13T00:44:11.004Z,4.20
2023-10-13T00:45:18.313Z,3.70
2023-10-13T00:46:21.703Z,4.30
2023-10-13T00:47:45.113Z,4.80
2023-10-13T00:48:57.282Z,3.90
2023-10-13T00:50:00.890Z,5.10
2023-10-13T00:51:08.393Z,5.20
2023-10-13T00:52:13.590Z,3.80
2023-10-13T00:53:17.031Z,4.20
2023-10-13T00:54:27.923Z,4.00
2023-10-13T00:55:34.795Z,4.00
2023-10-13T00:56:49.960Z,4.00
2023-10-13T00:57:55.628Z,3.80
2023-10-13T00:59:03.584Z,4.50
2023-10-13T01:00:20.043Z,4.20
2023-10-13T01:01:23.335Z,4.00
2023-10-13T01:02:41.649Z,3.50
2023-10-13T01:03:49.328Z,3.80
2023-10-13T01:04:55.504Z,4.20
2023-10-13T01:06:00.077Z,4.50
2023-10-13T01:07:03.876Z,3.50
2023-10-13T01:08:11.910Z,4.30
2023-10-13T01:09:17.591Z,4.60
2023-10-13T01:10:21.663Z,4.00
2023-10-13T01:11:30.880Z,3.70
2023-10-13T01:12:34.187Z,3.80
2023-10-13T01:13:37.713Z,3.90
2023-10-13T01:14:40.860Z,4.40
2023-10-13T01:15:43.819Z,3.60
2023-10-13T01:16:48.300Z,4.20
2023-10-13T01:17:51.663Z,3.80
2023-10-13T01:19:00.482Z,5.10
2023-10-13T01:20:06.147Z,4.30
2023-10-13T01:21:10.351Z,3.90
2023-10-13T01:22:13.381Z,4.10
2023-10-13T01:23:29.698Z,3.40
2023-10-13T01:24:36.045Z,3.80
2023-10-13T01:25:41.175Z,4.20
2023-10-13T01:26:44.387Z,4.50
2023-10-13T01:27:50.175Z,4.30
2023-10-13T01:28:57.701Z,4.20
2023-10-13T01:30:07.147Z,4.10
2023-10-13T01:31:12.656Z,4.50
2023-10-13T01:32:18.374Z,4.60
2023-10-13T01:33:28.828Z,4.70
2023-10-13T01:35:48.478Z,4.00
2023-10-13T01:36:56.486Z,4.90
2023-10-13T01:37:59.429Z,4.30
2023-10-13T01:39:02.739Z,3.90
2023-10-13T01:40:06.488Z,4.30
2023-10-13T01:41:10.203Z,4.30
2023-10-13T01:42:15.560Z,4.50
2023-10-13T01:43:19.341Z,4.50
2023-10-13T01:44:23.412Z,4.40
2023-10-13T01:45:30.514Z,3.50
2023-10-13T01:46:33.953Z,4.10
2023-10-13T01:47:37.440Z,4.20
2023-10-13T01:48:41.293Z,3.90
2023-10-13T01:49:48.321Z,3.90
2023-10-13T01:51:06.891Z,4.10
2023-10-13T01:52:16.814Z,4.00
2023-10-13T01:53:20.617Z,4.10
2023-10-13T01:54:23.960Z,4.10
2023-10-13T01:55:26.857Z,4.40
2023-10-13T01:56:31.705Z,4.50
2023-10-13T01:57:34.843Z,3.70
2023-10-13T01:58:47.689Z,4.40
2023-10-13T01:59:51.138Z,3.70
2023-10-13T02:00:57.722Z,4.10
2023-10-13T02:02:02.785Z,8.20
2023-10-13T02:03:08.504Z,4.70
2023-10-13T02:04:11.917Z,4.30
2023-10-13T02:05:18.291Z,4.40
2023-10-13T02:06:25.350Z,4.00
2023-10-13T02:07:31.853Z,3.70
2023-10-13T02:08:40.995Z,4.00
2023-10-13T02:09:44.405Z,3.80
2023-10-13T02:10:47.345Z,3.90
2023-10-13T02:11:55.458Z,4.20
2023-10-13T02:12:58.847Z,4.20
2023-10-13T02:14:02.017Z,4.10
2023-10-13T02:15:06.277Z,3.60
2023-10-13T02:16:10.022Z,3.70
2023-10-13T02:17:14.005Z,3.90
2023-10-13T02:18:27.610Z,4.00
2023-10-13T02:19:31.374Z,4.20
2023-10-13T02:20:42.599Z,3.90
2023-10-13T02:21:46.556Z,3.80
2023-10-13T02:22:51.728Z,3.90
2023-10-13T02:24:01.488Z,4.30
2023-10-13T02:25:07.226Z,3.90
2023-10-13T02:26:15.956Z,3.70
2023-10-13T02:27:19.069Z,3.80
2023-10-13T02:28:29.505Z,4.80
2023-10-13T02:29:39.893Z,3.80
2023-10-13T02:32:28.268Z,4.10
2023-10-13T02:33:32.545Z,3.60
2023-10-13T02:34:35.516Z,4.10
2023-10-13T02:35:42.842Z,4.70
2023-10-13T02:36:49.889Z,3.90
2023-10-13T02:37:57.269Z,4.50
2023-10-13T02:39:00.457Z,3.90
2023-10-13T02:40:03.907Z,5.60
2023-10-13T02:41:29.095Z,3.80
2023-10-13T02:42:32.787Z,4.70
2023-10-13T02:43:36.976Z,4.20
2023-10-13T02:44:42.612Z,3.50
2023-10-13T02:45:58.911Z,4.30
2023-10-13T02:47:02.185Z,4.20
2023-10-13T02:48:24.642Z,4.20
2023-10-13T02:49:30.909Z,4.20
2023-10-13T02:50:36.226Z,3.60
2023-10-13T02:51:43.269Z,4.00
2023-10-13T02:52:49.278Z,3.90
2023-10-13T02:53:53.860Z,4.00
2023-10-13T02:54:58.474Z,3.80
2023-10-13T02:56:06.206Z,3.90
2023-10-13T02:57:09.284Z,4.50
2023-10-13T02:58:16.086Z,4.30
2023-10-13T02:59:35.234Z,3.80
2023-10-13T03:00:41.959Z,4.00
2023-10-13T03:01:45.067Z,4.40
2023-10-13T03:02:59.344Z,4.70
2023-10-13T03:04:04.624Z,3.90
2023-10-13T03:05:10.607Z,4.10
2023-10-13T03:06:14.615Z,4.00
2023-10-13T03:07:24.423Z,4.10
2023-10-13T03:08:28.620Z,4.10
2023-10-13T03:09:31.641Z,5.40
2023-10-13T03:10:41.240Z,4.50
2023-10-13T03:11:51.063Z,4.20
2023-10-13T03:12:54.599Z,4.00
2023-10-13T03:13:57.531Z,4.50
2023-10-13T03:15:19.436Z,4.40
2023-10-13T03:16:22.413Z,4.20
2023-10-13T03:17:37.379Z,5.00
2023-10-13T03:18:40.873Z,5.30
2023-10-13T03:19:51.978Z,4.60
2023-10-13T03:21:00.567Z,5.40
2023-10-13T03:22:13.586Z,5.30
2023-10-13T03:23:18.093Z,5.20
2023-10-13T03:24:24.122Z,4.70
2023-10-13T03:25:30.897Z,4.70
2023-10-13T03:26:36.444Z,4.40
2023-10-13T03:27:54.418Z,5.10
2023-10-13T03:28:59.177Z,4.90
2023-10-13T03:30:10.617Z,4.20
2023-10-13T03:31:19.283Z,4.70
2023-10-13T03:32:22.407Z,4.50
2023-10-13T03:33:28.176Z,4.70
2023-10-13T03:34:31.755Z,4.90
2023-10-13T03:35:39.224Z,4.30
2023-10-13T03:36:59.770Z,3.70
2023-10-13T03:39:08.567Z,3.90
2023-10-13T03:40:22.895Z,4.40
2023-10-13T03:41:31.373Z,4.10
2023-10-13T03:42:34.209Z,4.70
2023-10-13T03:43:47.094Z,3.90
2023-10-13T03:44:50.782Z,3.20
2023-10-13T03:46:02.460Z,4.00
2023-10-13T03:47:19.504Z,4.10
2023-10-13T03:48:28.371Z,3.50
2023-10-13T03:49:32.214Z,3.80
2023-10-13T03:50:37.165Z,4.30
2023-10-13T03:51:41.335Z,4.40
2023-10-13T03:52:45.786Z,4.10
2023-10-13T03:53:54.817Z,4.00
2023-10-13T03:54:59.906Z,4.20
2023-10-13T03:56:15.477Z,4.10
2023-10-13T03:57:18.596Z,4.10
2023-10-13T03:58:27.633Z,4.50
2023-10-13T03:59:36.772Z,4.10
2023-10-13T04:00:39.608Z,3.70
2023-10-13T04:01:50.688Z,4.50
2023-10-13T04:03:09.395Z,4.60
2023-10-13T04:04:16.151Z,4.20
2023-10-13T04:05:37.598Z,3.90
2023-10-13T04:06:46.724Z,3.90
2023-10-13T04:08:09.862Z,4.10
2023-10-13T04:09:29.291Z,4.00
2023-10-13T04:10:50.685Z,3.80
2023-10-13T04:12:13.795Z,4.20
2023-10-13T04:13:16.952Z,4.20
2023-10-13T04:14:25.736Z,4.30
2023-10-13T04:15:38.064Z,4.30
2023-10-13T04:16:53.588Z,3.50
2023-10-13T04:17:57.032Z,3.90
2023-10-13T04:19:00.197Z,3.80
2023-10-13T04:20:06.244Z,4.00
2023-10-13T04:21:29.257Z,3.80
2023-10-13T04:22:49.998Z,3.40
2023-10-13T04:24:12.976Z,3.80
2023-10-13T04:25:36.748Z,3.80
2023-10-13T04:26:59.939Z,3.90
2023-10-13T04:28:14.908Z,3.60
2023-10-13T04:29:30.822Z,3.50
2023-10-13T04:30:53.282Z,3.50
2023-10-13T04:32:01.796Z,3.70
2023-10-13T04:33:18.473Z,4.30
2023-10-13T04:34:29.148Z,3.60
2023-10-13T04:35:37.335Z,4.00
2023-10-13T04:36:46.674Z,3.60
2023-10-13T04:37:52.116Z,4.10
2023-10-13T04:39:05.959Z,4.00
2023-10-13T04:40:12.827Z,4.20
2023-10-13T04:41:23.886Z,4.00
2023-10-13T04:42:45.606Z,3.50
2023-10-13T04:43:57.366Z,4.10
2023-10-13T04:45:17.075Z,4.50
2023-10-13T04:46:38.870Z,2.90
2023-10-13T04:47:49.518Z,3.70
2023-10-13T04:48:52.571Z,4.60
2023-10-13T04:49:59.581Z,4.70
2023-10-13T04:51:21.820Z,5.50
2023-10-13T04:52:52.408Z,4.60
2023-10-13T04:54:01.597Z,4.90
2023-10-13T04:55:38.384Z,4.20
2023-10-13T04:56:59.903Z,4.50
2023-10-13T04:58:16.255Z,5.10
2023-10-13T04:59:36.426Z,3.90
2023-10-13T05:01:17.275Z,3.90
2023-10-13T05:02:39.036Z,4.30
2023-10-13T05:03:54.446Z,4.30
2023-10-13T05:05:15.171Z,3.50
2023-10-13T05:06:38.118Z,3.50
2023-10-13T05:08:00.814Z,3.50
2023-10-13T05:09:22.981Z,4.20
2023-10-13T05:10:44.451Z,4.00
2023-10-13T05:12:10.550Z,4.30
2023-10-13T05:13:31.808Z,4.00
2023-10-13T05:14:53.168Z,3.50
2023-10-13T05:16:16.035Z,3.80
2023-10-13T05:17:37.698Z,4.10
2023-10-13T05:18:59.666Z,3.80
2023-10-13T05:20:21.275Z,3.30
2023-10-13T05:21:42.658Z,4.00
2023-10-13T05:23:04.226Z,3.80
2023-10-13T05:24:26.825Z,4.30
2023-10-13T05:25:48.621Z,4.90
2023-10-13T05:27:11.890Z,3.80
2023-10-13T05:28:35.773Z,4.30
2023-10-13T05:29:59.344Z,4.10
2023-10-13T05:31:30.414Z,4.10
2023-10-13T05:32:52.622Z,4.50
2023-10-13T05:34:14.255Z,4.40
2023-10-13T05:35:36.214Z,4.30
2023-10-13T05:36:58.102Z,3.90
2023-10-13T05:38:20.328Z,4.50
2023-10-13T05:39:43.280Z,4.70
2023-10-13T05:41:19.172Z,4.80
2023-10-13T05:42:42.716Z,3.80
2023-10-13T05:44:04.346Z,3.90
2023-10-13T05:45:25.620Z,4.30
2023-10-13T05:46:28.985Z,4.30
2023-10-13T05:47:44.705Z,4.60
2023-10-13T05:49:13.456Z,5.50
2023-10-13T05:50:22.405Z,4.90
2023-10-13T05:51:44.274Z,5.10
2023-10-13T05:52:58.043Z,5.00
2023-10-13T05:54:30.800Z,4.80
2023-10-13T05:55:52.519Z,4.80
2023-10-13T05:57:13.809Z,4.40
2023-10-13T05:58:35.873Z,4.40
2023-10-13T05:59:58.070Z,4.00
2023-10-13T06:01:19.737Z,3.90
2023-10-13T06:02:42.563Z,4.10
2023-10-13T06:04:05.028Z,4.30
2023-10-13T06:05:28.773Z,5.20
2023-10-13T06:06:50.246Z,4.60
2023-10-13T06:08:12.307Z,4.40
2023-10-13T06:09:34.322Z,4.30
2023-10-13T06:10:56.716Z,4.50
2023-10-13T06:12:38.373Z,4.70
2023-10-13T06:14:00.012Z,4.30
2023-10-13T06:15:22.142Z,4.50
2023-10-13T06:16:44.009Z,4.20
2023-10-13T06:18:05.419Z,4.50
2023-10-13T06:19:26.782Z,4.20
2023-10-13T06:20:48.661Z,4.60
2023-10-13T06:22:09.984Z,5.10
2023-10-13T06:23:31.695Z,4.60
2023-10-13T06:24:53.300Z,4.00
2023-10-13T06:26:15.800Z,4.20
2023-10-13T06:27:37.543Z,3.50
2023-10-13T06:28:43.559Z,3.90
2023-10-13T06:29:47.120Z,3.60
2023-10-13T06:31:00.825Z,5.70
2023-10-13T06:32:14.812Z,4.40
2023-10-13T06:33:18.307Z,4.20
2023-10-13T06:34:22.835Z,4.20
2023-10-13T06:35:25.842Z,4.70
2023-10-13T06:36:29.026Z,4.10
2023-10-13T06:37:33.656Z,4.50
2023-10-13T06:38:37.484Z,4.60
2023-10-13T06:39:40.527Z,4.30
2023-10-13T06:40:49.601Z,4.30
2023-10-13T06:41:52.868Z,4.60
2023-10-13T06:43:17.858Z,4.20
2023-10-13T06:44:22.256Z,3.80
2023-10-13T06:45:29.439Z,4.40
2023-10-13T06:46:35.390Z,4.70
2023-10-13T06:47:44.054Z,4.10
2023-10-13T06:48:47.700Z,4.70
2023-10-13T06:49:52.630Z,4.80
2023-10-13T06:50:57.092Z,4.20
2023-10-13T06:52:01.726Z,4.40
2023-10-13T06:53:04.825Z,3.80
2023-10-13T06:54:12.906Z,4.30
2023-10-13T06:55:18.464Z,4.00
2023-10-13T06:56:29.014Z,3.70
2023-10-13T06:57:35.808Z,3.70
2023-10-13T06:58:44.179Z,3.70
2023-10-13T06:59:48.162Z,4.10
2023-10-13T07:00:56.100Z,4.00
2023-10-13T07:02:20.438Z,4.00
2023-10-13T07:03:27.831Z,3.50
2023-10-13T07:04:31.125Z,3.90
2023-10-13T07:05:42.934Z,3.30
2023-10-13T07:06:52.150Z,3.00
2023-10-13T07:07:58.803Z,3.60
2023-10-13T07:09:06.019Z,4.10
2023-10-13T07:10:11.215Z,4.00
2023-10-13T07:11:34.412Z,4.40
2023-10-13T07:12:38.480Z,4.60
2023-10-13T07:13:48.428Z,3.90
2023-10-13T07:14:56.084Z,3.60
2023-10-13T07:16:14.741Z,3.80
2023-10-13T07:17:27.454Z,4.00
2023-10-13T07:19:54.327Z,4.30
2023-10-13T07:20:58.906Z,3.70
2023-10-13T07:22:21.744Z,3.90
2023-10-13T07:23:25.621Z,4.10
2023-10-13T07:24:33.499Z,3.60
2023-10-13T07:25:41.418Z,4.20
2023-10-13T07:26:46.667Z,3.80
2023-10-13T07:27:50.578Z,3.80
2023-10-13T07:28:55.016Z,3.80
2023-10-13T07:30:07.804Z,3.80
2023-10-13T07:31:16.151Z,4.50
2023-10-13T07:32:25.832Z,3.90
2023-10-13T07:33:32.509Z,4.80
2023-10-13T07:34:36.375Z,4.60
2023-10-13T07:35:39.533Z,4.20
2023-10-13T07:36:44.474Z,4.40
2023-10-13T07:37:53.650Z,5.10
2023-10-13T07:39:22.785Z,4.80
2023-10-13T07:40:27.001Z,4.70
2023-10-13T07:41:33.605Z,4.90
2023-10-13T07:42:40.321Z,4.80
2023-10-13T07:43:46.110Z,4.90
2023-10-13T07:44:49.576Z,4.80
2023-10-13T07:45:53.380Z,5.20
2023-10-13T07:47:00.130Z,5.70
2023-10-13T07:48:13.213Z,6.50
2023-10-13T07:49:16.583Z,5.10
2023-10-13T07:50:26.261Z,5.30
2023-10-13T07:51:29.686Z,5.20
2023-10-13T07:52:41.772Z,4.80
2023-10-13T07:53:44.766Z,3.90
2023-10-13T07:54:50.917Z,4.20
2023-10-13T07:55:57.534Z,4.30
2023-10-13T07:57:01.250Z,3.60
2023-10-13T07:58:08.992Z,4.30
2023-10-13T07:59:13.450Z,4.10
2023-10-13T08:00:28.398Z,4.40
2023-10-13T08:01:32.285Z,4.70
2023-10-13T08:02:56.047Z,5.10
2023-10-13T08:04:19.425Z,5.70
2023-10-13T08:05:30.733Z,6.40
2023-10-13T08:06:35.583Z,4.80
2023-10-13T08:07:41.189Z,4.10
2023-10-13T08:08:45.016Z,4.10
2023-10-13T08:09:52.775Z,4.40
2023-10-13T08:11:05.918Z,3.90
2023-10-13T08:12:13.152Z,4.10
2023-10-13T08:13:16.317Z,4.60
2023-10-13T08:14:37.796Z,5.20
2023-10-13T08:15:48.879Z,4.90
2023-10-13T08:17:01.688Z,5.60
2023-10-13T08:18:19.768Z,5.30
2023-10-13T08:19:54.040Z,4.60
2023-10-13T08:21:04.255Z,5.20
2023-10-13T08:22:20.312Z,5.50
2023-10-13T08:23:39.511Z,5.80
2023-10-13T08:24:42.641Z,6.40
2023-10-13T08:26:04.413Z,6.50
2023-10-13T08:27:17.129Z,5.90
2023-10-13T08:28:56.910Z,5.50
2023-10-13T08:30:02.460Z,6.40
2023-10-13T08:31:23.612Z,6.20
2023-10-13T08:32:28.628Z,5.30
2023-10-13T08:33:33.542Z,5.40
2023-10-13T08:35:00.836Z,5.20
2023-10-13T08:36:27.385Z,5.10
2023-10-13T08:37:36.185Z,5.90
2023-10-13T08:38:52.360Z,6.00
2023-10-13T08:40:20.294Z,5.30
2023-10-13T08:41:30.911Z,4.70
2023-10-13T08:42:40.578Z,5.90
2023-10-13T08:43:52.544Z,5.00
2023-10-13T08:44:56.725Z,4.80
2023-10-13T08:46:00.126Z,4.50
2023-10-13T08:47:07.291Z,5.30
2023-10-13T08:48:12.679Z,5.80
2023-10-13T08:49:19.094Z,5.10
2023-10-13T08:50:42.132Z,5.00
2023-10-13T08:51:45.938Z,5.40
2023-10-13T08:52:50.621Z,5.10
2023-10-13T08:53:59.105Z,4.20
2023-10-13T08:55:25.219Z,4.30
2023-10-13T08:56:48.221Z,4.90
2023-10-13T08:57:54.936Z,4.90
2023-10-13T08:59:40.151Z,4.90
2023-10-13T09:00:57.747Z,5.10
2023-10-13T09:02:01.101Z,4.50
2023-10-13T09:03:26.257Z,4.70
2023-10-13T09:04:35.171Z,4.20
2023-10-13T09:05:56.079Z,4.00
2023-10-13T09:07:09.189Z,4.00
2023-10-13T09:08:17.739Z,3.80
2023-10-13T09:09:50.030Z,3.70
2023-10-13T09:11:07.118Z,4.10
2023-10-13T09:12:20.029Z,4.20
2023-10-13T09:13:23.156Z,4.20
2023-10-13T09:14:36.809Z,4.50
2023-10-13T09:16:00.833Z,4.60
2023-10-13T09:17:19.453Z,5.20
2023-10-13T09:18:45.967Z,5.30
2023-10-13T09:19:58.939Z,5.30
2023-10-13T09:21:25.040Z,5.50
2023-10-13T09:22:39.266Z,5.60
2023-10-13T09:23:49.827Z,5.60
2023-10-13T09:24:59.246Z,5.60
2023-10-13T09:26:13.521Z,5.80
2023-10-13T09:27:16.807Z,5.40
2023-10-13T09:28:20.254Z,5.20
2023-10-13T09:29:25.715Z,5.40
2023-10-13T09:30:32.636Z,5.20
2023-10-13T09:31:35.581Z,4.90
2023-10-13T09:32:47.348Z,5.00
2023-10-13T09:33:56.609Z,5.30
2023-10-13T09:35:03.918Z,5.00
2023-10-13T09:36:08.231Z,5.20
2023-10-13T09:37:12.933Z,5.60
2023-10-13T09:38:17.303Z,4.70
2023-10-13T09:39:46.971Z,6.00
2023-10-13T09:40:58.475Z,4.40
2023-10-13T09:42:02.324Z,4.70
2023-10-13T09:43:16.108Z,5.00
2023-10-13T09:44:19.422Z,5.10
2023-10-13T09:45:29.849Z,5.40
2023-10-13T09:46:36.981Z,6.30
2023-10-13T09:47:41.960Z,5.50
2023-10-13T09:48:51.008Z,4.90
2023-10-13T09:50:04.833Z,5.40
2023-10-13T09:51:13.907Z,5.50
2023-10-13T09:52:21.649Z,5.80
2023-10-13T09:53:25.118Z,6.60
2023-10-13T09:56:20.366Z,6.00
2023-10-13T09:57:25.483Z,6.20
2023-10-13T09:58:37.776Z,5.70
2023-10-13T09:59:53.887Z,5.60
2023-10-13T10:01:08.505Z,6.50
2023-10-13T10:02:19.887Z,6.70
2023-10-13T10:03:41.286Z,6.60
2023-10-13T10:04:52.826Z,6.30
2023-10-13T10:06:04.927Z,5.80
2023-10-13T10:07:09.590Z,5.70
2023-10-13T10:08:13.156Z,5.90
2023-10-13T10:09:23.291Z,5.50
2023-10-13T10:12:09.613Z,5.70
2023-10-13T10:13:35.783Z,5.30
2023-10-13T10:15:21.317Z,5.50
2023-10-13T10:16:50.442Z,5.70
2023-10-13T10:17:55.167Z,4.80
2023-10-13T10:19:03.175Z,5.60
2023-10-13T10:20:13.197Z,5.70
2023-10-13T10:21:17.625Z,5.70
2023-10-13T10:22:45.693Z,5.20
2023-10-13T10:23:54.624Z,5.30
2023-10-13T10:25:00.409Z,5.70
2023-10-13T10:26:23.800Z,5.90
2023-10-13T10:27:32.537Z,5.80
2023-10-13T10:28:43.586Z,5.80
2023-10-13T10:29:56.162Z,5.10
2023-10-13T10:31:07.136Z,5.20
2023-10-13T10:32:15.200Z,5.20
2023-10-13T10:33:19.731Z,5.50
2023-10-13T10:34:33.886Z,5.10
2023-10-13T10:35:38.329Z,5.20
2023-10-13T10:36:44.507Z,4.70
2023-10-13T10:37:48.365Z,4.80
2023-10-13T10:39:05.534Z,5.10
2023-10-13T10:40:09.595Z,4.80
2023-10-13T10:41:14.820Z,4.80
2023-10-13T10:42:23.569Z,4.70
2023-10-13T10:43:43.024Z,4.90
2023-10-13T10:44:48.643Z,4.30
2023-10-13T10:45:51.808Z,4.70
2023-10-13T10:47:02.643Z,5.10
2023-10-13T10:48:18.217Z,5.10
2023-10-13T10:49:31.088Z,3.80
2023-10-13T10:50:36.987Z,4.00
2023-10-13T10:51:46.694Z,3.80
2023-10-13T10:52:49.567Z,4.30
2023-10-13T10:53:54.579Z,4.10
2023-10-13T10:55:15.052Z,3.60
2023-10-13T10:57:59.967Z,3.60
2023-10-13T10:59:06.012Z,4.00
2023-10-13T11:00:20.880Z,3.60
2023-10-13T11:01:35.581Z,3.60
2023-10-13T11:02:39.268Z,4.10
2023-10-13T11:03:43.304Z,3.60
2023-10-13T11:04:52.757Z,3.60
2023-10-13T11:05:55.911Z,3.90
2023-10-13T11:06:59.526Z,3.50
2023-10-13T11:08:03.466Z,3.70
2023-10-13T11:09:19.946Z,3.20
2023-10-13T11:10:29.266Z,3.80
2023-10-13T11:11:44.684Z,3.40
2023-10-13T11:13:15.459Z,3.70
2023-10-13T11:14:26.057Z,3.30
2023-10-13T11:15:35.579Z,3.60
2023-10-13T11:16:38.963Z,3.30
2023-10-13T11:17:52.312Z,3.50
2023-10-13T11:19:03.393Z,3.30
2023-10-13T11:21:21.114Z,3.10
2023-10-13T11:22:30.947Z,3.30
2023-10-13T11:23:37.748Z,4.10
2023-10-13T11:24:43.372Z,4.30
2023-10-13T11:25:46.436Z,3.10
2023-10-13T11:26:50.883Z,3.70
2023-10-13T11:27:54.202Z,4.00
2023-10-13T11:28:57.402Z,3.60
2023-10-13T11:30:06.631Z,3.60
2023-10-13T11:31:12.297Z,4.70
2023-10-13T11:32:21.407Z,3.40
2023-10-13T11:33:30.551Z,3.20
2023-10-13T11:34:42.516Z,4.50
2023-10-13T11:35:54.825Z,3.90
2023-10-13T11:36:59.803Z,4.20
2023-10-13T11:38:16.611Z,3.60
2023-10-13T11:39:25.954Z,4.20
2023-10-13T11:40:45.355Z,4.10
2023-10-13T11:41:57.531Z,4.10
2023-10-13T11:43:00.491Z,4.20
2023-10-13T11:44:18.635Z,4.70
2023-10-13T11:45:31.081Z,4.90
2023-10-13T11:46:37.058Z,4.60
2023-10-13T11:47:51.805Z,4.40
2023-10-13T11:48:56.667Z,4.60
2023-10-13T11:50:00.948Z,4.80
2023-10-13T11:51:08.842Z,4.50
2023-10-13T11:52:17.824Z,4.00
2023-10-13T11:53:21.025Z,4.60
2023-10-13T11:54:26.796Z,5.00
2023-10-13T11:55:30.042Z,4.70
2023-10-13T11:56:33.224Z,5.30
2023-10-13T11:57:36.026Z,4.50
2023-10-13T11:58:40.909Z,5.20
2023-10-13T11:59:47.791Z,5.20
2023-10-13T12:01:17.087Z,5.50
2023-10-13T12:02:28.230Z,4.90
2023-10-13T12:03:50.142Z,5.40
2023-10-13T12:04:55.653Z,4.80
2023-10-13T12:06:20.794Z,4.90
2023-10-13T12:07:42.847Z,5.40
2023-10-13T12:08:50.744Z,5.30
2023-10-13T12:09:57.595Z,5.00
2023-10-13T12:11:23.423Z,5.70
2023-10-13T12:12:31.700Z,5.50
2023-10-13T12:13:34.597Z,5.10
2023-10-13T12:14:53.604Z,5.40
2023-10-13T12:15:57.980Z,5.90
2023-10-13T12:17:11.987Z,6.20
2023-10-13T12:18:16.511Z,6.10
2023-10-13T12:19:28.062Z,6.30
2023-10-13T12:20:33.976Z,6.10
2023-10-13T12:21:38.969Z,6.90
2023-10-13T12:22:52.583Z,6.70
2023-10-13T12:23:55.744Z,6.70
2023-10-13T12:24:58.620Z,7.00
2023-10-13T12:26:01.992Z,7.40
2023-10-13T12:27:21.641Z,7.10
2023-10-13T12:28:28.514Z,7.80
2023-10-13T12:29:32.436Z,7.50
2023-10-13T12:30:50.478Z,7.50
2023-10-13T12:32:06.955Z,8.10
2023-10-13T12:33:10.639Z,7.60
2023-10-13T12:34:21.172Z,7.70
2023-10-13T12:35:38.927Z,7.50
2023-10-13T12:36:54.627Z,8.30
2023-10-13T12:38:06.447Z,7.00
2023-10-13T12:39:09.639Z,8.00
2023-10-13T12:40:38.675Z,7.80
2023-10-13T12:42:00.378Z,8.60
2023-10-13T12:43:23.396Z,7.70
2023-10-13T12:44:45.448Z,7.30
2023-10-13T12:46:10.322Z,7.90
2023-10-13T12:47:32.121Z,8.80
2023-10-13T12:48:54.798Z,7.10
2023-10-13T12:50:06.343Z,7.50
2023-10-13T12:51:21.375Z,6.70
2023-10-13T12:52:27.263Z,7.00
2023-10-13T12:53:32.000Z,7.70
2023-10-13T12:54:40.158Z,8.30
2023-10-13T12:55:43.322Z,7.60
2023-10-13T12:56:47.528Z,7.50
2023-10-13T12:57:50.648Z,7.60
2023-10-13T12:58:55.446Z,8.80
2023-10-13T12:59:58.812Z,7.70
2023-10-13T13:01:07.582Z,9.10
2023-10-13T13:02:16.400Z,8.20
2023-10-13T13:03:20.294Z,8.50
2023-10-13T13:04:23.715Z,7.60
2023-10-13T13:05:30.344Z,8.20
2023-10-13T13:06:33.361Z,9.10
2023-10-13T13:07:45.569Z,8.20
2023-10-13T13:08:48.675Z,9.90
2023-10-13T13:09:51.556Z,8.70
2023-10-13T13:10:54.425Z,8.40
2023-10-13T13:11:59.084Z,9.10
2023-10-13T13:13:04.576Z,9.70
2023-10-13T13:14:09.091Z,9.10
2023-10-13T13:15:17.333Z,9.10
2023-10-13T13:16:25.200Z,9.20
2023-10-13T13:17:28.739Z,8.60
2023-10-13T13:18:34.670Z,9.60
2023-10-13T13:19:41.661Z,9.30
2023-10-13T13:20:54.480Z,9.60
2023-10-13T13:21:57.940Z,9.60
2023-10-13T13:23:05.596Z,10.10
2023-10-13T13:24:12.045Z,10.30
2023-10-13T13:25:18.938Z,10.60
2023-10-13T13:26:22.974Z,9.40
2023-10-13T13:27:26.162Z,11.00
2023-10-13T13:28:38.818Z,10.80
2023-10-13T13:29:43.108Z,10.60
2023-10-13T13:30:51.776Z,11.70
2023-10-13T13:31:55.092Z,10.80
2023-10-13T13:32:59.813Z,11.10
2023-10-13T13:34:02.763Z,11.50
2023-10-13T13:35:06.627Z,11.50
2023-10-13T13:36:17.028Z,12.20
2023-10-13T13:37:21.085Z,11.80
2023-10-13T13:38:28.599Z,11.60
2023-10-13T13:39:31.956Z,11.30
2023-10-13T13:40:36.526Z,11.90
2023-10-13T13:41:39.540Z,12.90
2023-10-13T13:42:47.166Z,12.30
2023-10-13T13:43:51.420Z,12.40
2023-10-13T13:44:55.077Z,12.00
2023-10-13T13:46:04.921Z,12.50
2023-10-13T13:47:13.411Z,11.80
2023-10-13T13:48:17.708Z,12.50
2023-10-13T13:49:29.032Z,12.50
2023-10-13T13:50:33.463Z,13.80
2023-10-13T13:51:39.392Z,12.40
2023-10-13T13:52:47.236Z,12.50
2023-10-13T13:53:50.184Z,11.30
2023-10-13T13:54:53.187Z,13.00
2023-10-13T13:55:56.033Z,13.00
2023-10-13T13:56:59.256Z,12.90
2023-10-13T13:58:02.189Z,14.60
2023-10-13T13:59:16.462Z,13.70
2023-10-13T14:00:31.492Z,12.90
2023-10-13T14:01:38.415Z,13.80
2023-10-13T14:02:46.959Z,14.40
2023-10-13T14:03:53.685Z,13.90
2023-10-13T14:04:58.086Z,15.00
2023-10-13T14:06:02.405Z,14.70
2023-10-13T14:07:07.546Z,15.70
2023-10-13T14:08:13.213Z,14.30
2023-10-13T14:09:36.890Z,15.10
2023-10-13T14:10:58.569Z,14.30
2023-10-13T14:12:31.002Z,15.30
2023-10-13T14:13:57.281Z,16.50
2023-10-13T14:15:04.115Z,15.30
2023-10-13T14:16:06.995Z,16.00
2023-10-13T14:17:09.984Z,16.70
2023-10-13T14:18:19.128Z,16.70
2023-10-13T14:19:28.517Z,16.60
2023-10-13T14:20:31.557Z,16.40
2023-10-13T14:21:36.183Z,17.40
2023-10-13T14:22:39.281Z,16.90
2023-10-13T14:23:42.198Z,16.60
2023-10-13T14:24:47.316Z,16.50
2023-10-13T14:25:52.784Z,17.80
2023-10-13T14:27:20.490Z,18.10
2023-10-13T14:28:23.645Z,18.70
2023-10-13T14:29:27.960Z,17.50
2023-10-13T14:30:32.556Z,18.60
2023-10-13T14:31:40.379Z,18.10
2023-10-13T14:32:43.647Z,18.40
2023-10-13T14:33:47.742Z,17.70
2023-10-13T14:34:55.765Z,20.00
2023-10-13T14:35:58.830Z,20.10
2023-10-13T14:37:01.784Z,18.50
2023-10-13T14:38:05.167Z,20.90
2023-10-13T14:39:11.193Z,20.80
2023-10-13T14:40:16.433Z,20.80
2023-10-13T14:41:20.390Z,23.00
2023-10-13T14:42:24.968Z,21.80
2023-10-13T14:43:28.490Z,21.40
2023-10-13T14:44:32.247Z,21.90
2023-10-13T14:45:36.999Z,21.10
2023-10-13T14:46:41.040Z,20.80
2023-10-13T14:47:45.322Z,20.80
2023-10-13T14:48:50.140Z,19.00
2023-10-13T14:50:00.179Z,19.70
2023-10-13T14:51:09.208Z,20.70
2023-10-13T14:52:13.352Z,21.60
2023-10-13T14:53:20.924Z,21.90
2023-10-13T14:54:36.165Z,20.80
2023-10-13T14:55:39.859Z,22.40
2023-10-13T14:56:43.429Z,22.30
2023-10-13T14:57:51.997Z,22.00
2023-10-13T14:58:56.413Z,20.90
2023-10-13T14:59:59.391Z,21.80
2023-10-13T15:01:02.306Z,21.90
2023-10-13T15:02:05.297Z,22.00
2023-10-13T15:03:08.684Z,21.90
2023-10-13T15:04:11.748Z,20.50
2023-10-13T15:05:20.478Z,20.00
2023-10-13T15:06:31.028Z,21.00
2023-10-13T15:07:34.062Z,21.40
2023-10-13T15:08:37.047Z,20.60
2023-10-13T15:09:43.832Z,22.50
2023-10-13T15:10:46.814Z,22.40
2023-10-13T15:11:50.490Z,21.60
2023-10-13T15:12:53.497Z,21.70
2023-10-13T15:13:57.407Z,20.80
2023-10-13T15:15:00.401Z,21.70
2023-10-13T15:16:14.914Z,21.40
2023-10-13T15:17:18.049Z,22.00
2023-10-13T15:18:24.361Z,21.80
2023-10-13T15:19:28.567Z,22.60
2023-10-13T15:20:31.703Z,21.80
2023-10-13T15:21:37.544Z,22.80
2023-10-13T15:22:40.783Z,22.80
2023-10-13T15:23:43.782Z,22.50
2023-10-13T15:24:58.919Z,22.30
2023-10-13T15:26:10.977Z,21.80
2023-10-13T15:27:13.987Z,22.80
2023-10-13T15:28:21.966Z,22.10
2023-10-13T15:29:27.787Z,23.00
2023-10-13T15:30:50.323Z,22.10
2023-10-13T15:32:00.413Z,22.10
2023-10-13T15:34:18.896Z,23.00
2023-10-13T15:35:23.853Z,22.50
2023-10-13T15:36:28.142Z,21.90
2023-10-13T15:37:31.264Z,22.80
2023-10-13T15:38:34.165Z,22.00
2023-10-13T15:39:37.610Z,21.00
2023-10-13T15:40:45.036Z,22.50
2023-10-13T15:41:49.769Z,21.60
2023-10-13T15:42:55.246Z,21.70